sensor_id;sensor_type;location;lat;lon;timestamp;temperature;humidity
77039;DHT22;65970;50.476;4.840;2023-02-15T00:01:22;5.70;70.40
77039;DHT22;65970;50.476;4.840;2023-02-15T00:06:23;5.60;71.00
77039;DHT22;65970;50.476;4.840;2023-02-15T00:11:23;5.60;71.20
77039;DHT22;65970;50.476;4.840;2023-02-15T00:16:24;5.60;71.70
77039;DHT22;65970;50.476;4.840;2023-02-15T00:21:25;5.60;72.10
77039;DHT22;65970;50.476;4.840;2023-02-15T00:26:25;5.50;71.80
77039;DHT22;65970;50.476;4.840;2023-02-15T00:31:28;5.50;71.60
77039;DHT22;65970;50.476;4.840;2023-02-15T00:36:29;5.50;69.50
77039;DHT22;65970;50.476;4.840;2023-02-15T00:41:30;5.50;68.30
77039;DHT22;65970;50.476;4.840;2023-02-15T00:46:31;5.50;68.30
77039;DHT22;65970;50.476;4.840;2023-02-15T00:51:32;5.50;69.10
77039;DHT22;65970;50.476;4.840;2023-02-15T00:56:33;5.60;70.50
77039;DHT22;65970;50.476;4.840;2023-02-15T01:01:33;5.60;69.50
77039;DHT22;65970;50.476;4.840;2023-02-15T01:06:34;5.70;68.90
77039;DHT22;65970;50.476;4.840;2023-02-15T01:11:34;5.70;67.20
77039;DHT22;65970;50.476;4.840;2023-02-15T01:16:35;5.70;68.00
77039;DHT22;65970;50.476;4.840;2023-02-15T01:21:35;5.70;66.90
77039;DHT22;65970;50.476;4.840;2023-02-15T01:26:36;5.70;67.30
77039;DHT22;65970;50.476;4.840;2023-02-15T01:31:36;5.60;69.00
77039;DHT22;65970;50.476;4.840;2023-02-15T01:36:37;5.60;67.80
77039;DHT22;65970;50.476;4.840;2023-02-15T01:41:37;5.40;68.30
77039;DHT22;65970;50.476;4.840;2023-02-15T01:46:50;5.40;65.90
77039;DHT22;65970;50.476;4.840;2023-02-15T01:51:52;5.40;67.60
77039;DHT22;65970;50.476;4.840;2023-02-15T01:56:55;5.30;67.20
77039;DHT22;65970;50.476;4.840;2023-02-15T02:01:59;5.40;68.80
77039;DHT22;65970;50.476;4.840;2023-02-15T02:07:02;5.30;68.10
77039;DHT22;65970;50.476;4.840;2023-02-15T02:12:04;5.20;67.60
77039;DHT22;65970;50.476;4.840;2023-02-15T02:17:07;5.20;67.70
77039;DHT22;65970;50.476;4.840;2023-02-15T02:43:18;5.10;72.40
77039;DHT22;65970;50.476;4.840;2023-02-15T02:48:24;5.10;69.50
77039;DHT22;65970;50.476;4.840;2023-02-15T02:53:28;5.10;65.70
77039;DHT22;65970;50.476;4.840;2023-02-15T03:04:11;5.20;65.80
77039;DHT22;65970;50.476;4.840;2023-02-15T03:14:32;5.30;66.50
77039;DHT22;65970;50.476;4.840;2023-02-15T03:19:35;5.30;64.60
77039;DHT22;65970;50.476;4.840;2023-02-15T03:30:09;5.30;62.00
77039;DHT22;65970;50.476;4.840;2023-02-15T03:35:10;5.20;63.20
77039;DHT22;65970;50.476;4.840;2023-02-15T03:40:21;5.10;63.10
77039;DHT22;65970;50.476;4.840;2023-02-15T03:45:27;5.00;63.50
77039;DHT22;65970;50.476;4.840;2023-02-15T03:50:31;4.90;64.80
77039;DHT22;65970;50.476;4.840;2023-02-15T03:55:34;4.80;64.20
77039;DHT22;65970;50.476;4.840;2023-02-15T04:00:38;4.80;64.30
77039;DHT22;65970;50.476;4.840;2023-02-15T04:05:44;4.80;65.40
77039;DHT22;65970;50.476;4.840;2023-02-15T04:10:44;4.80;64.50
77039;DHT22;65970;50.476;4.840;2023-02-15T04:15:45;4.70;65.50
77039;DHT22;65970;50.476;4.840;2023-02-15T04:20:46;4.60;67.00
77039;DHT22;65970;50.476;4.840;2023-02-15T04:25:46;4.70;69.20
77039;DHT22;65970;50.476;4.840;2023-02-15T04:30:47;4.80;66.70
77039;DHT22;65970;50.476;4.840;2023-02-15T04:35:47;4.90;64.70
77039;DHT22;65970;50.476;4.840;2023-02-15T04:40:52;4.90;65.00
77039;DHT22;65970;50.476;4.840;2023-02-15T04:45:52;4.90;62.40
77039;DHT22;65970;50.476;4.840;2023-02-15T04:50:53;4.90;63.80
77039;DHT22;65970;50.476;4.840;2023-02-15T04:55:53;4.80;62.60
77039;DHT22;65970;50.476;4.840;2023-02-15T05:00:57;4.80;62.90
77039;DHT22;65970;50.476;4.840;2023-02-15T05:05:58;4.80;67.50
77039;DHT22;65970;50.476;4.840;2023-02-15T05:10:58;4.90;64.10
77039;DHT22;65970;50.476;4.840;2023-02-15T05:15:59;4.90;65.40
77039;DHT22;65970;50.476;4.840;2023-02-15T05:20:59;4.90;66.20
77039;DHT22;65970;50.476;4.840;2023-02-15T05:26:00;5.00;63.30
77039;DHT22;65970;50.476;4.840;2023-02-15T05:36:08;5.00;61.40
77039;DHT22;65970;50.476;4.840;2023-02-15T05:41:10;5.10;63.60
77039;DHT22;65970;50.476;4.840;2023-02-15T05:46:11;5.10;62.50
77039;DHT22;65970;50.476;4.840;2023-02-15T05:51:13;5.10;60.90
77039;DHT22;65970;50.476;4.840;2023-02-15T05:56:13;5.00;60.40
77039;DHT22;65970;50.476;4.840;2023-02-15T06:01:16;5.00;60.40
77039;DHT22;65970;50.476;4.840;2023-02-15T06:06:17;4.90;61.80
77039;DHT22;65970;50.476;4.840;2023-02-15T06:11:18;4.80;60.70
77039;DHT22;65970;50.476;4.840;2023-02-15T06:16:18;4.70;63.40
77039;DHT22;65970;50.476;4.840;2023-02-15T06:21:19;4.70;63.70
77039;DHT22;65970;50.476;4.840;2023-02-15T06:26:19;4.60;63.30
77039;DHT22;65970;50.476;4.840;2023-02-15T06:31:20;4.60;65.60
77039;DHT22;65970;50.476;4.840;2023-02-15T06:36:21;4.60;64.20
77039;DHT22;65970;50.476;4.840;2023-02-15T06:41:21;4.70;61.70
77039;DHT22;65970;50.476;4.840;2023-02-15T06:46:22;4.60;63.00
77039;DHT22;65970;50.476;4.840;2023-02-15T06:51:22;4.70;63.00
77039;DHT22;65970;50.476;4.840;2023-02-15T06:56:23;4.70;64.40
77039;DHT22;65970;50.476;4.840;2023-02-15T07:01:23;4.70;62.70
77039;DHT22;65970;50.476;4.840;2023-02-15T07:06:24;4.60;60.50
77039;DHT22;65970;50.476;4.840;2023-02-15T07:11:25;4.60;61.70
77039;DHT22;65970;50.476;4.840;2023-02-15T07:16:25;4.50;63.50
77039;DHT22;65970;50.476;4.840;2023-02-15T07:21:26;4.50;61.80
77039;DHT22;65970;50.476;4.840;2023-02-15T07:26:26;4.50;63.00
77039;DHT22;65970;50.476;4.840;2023-02-15T07:31:27;4.50;62.90
77039;DHT22;65970;50.476;4.840;2023-02-15T07:36:28;4.50;62.50
77039;DHT22;65970;50.476;4.840;2023-02-15T07:41:28;4.60;65.70
77039;DHT22;65970;50.476;4.840;2023-02-15T07:46:29;4.50;65.70
77039;DHT22;65970;50.476;4.840;2023-02-15T07:56:40;4.70;64.00
77039;DHT22;65970;50.476;4.840;2023-02-15T08:01:40;4.80;64.50
77039;DHT22;65970;50.476;4.840;2023-02-15T08:06:41;4.90;65.70
77039;DHT22;65970;50.476;4.840;2023-02-15T08:11:41;4.90;72.20
77039;DHT22;65970;50.476;4.840;2023-02-15T08:16:53;5.00;67.40
77039;DHT22;65970;50.476;4.840;2023-02-15T11:12:43;10.50;56.50
77039;DHT22;65970;50.476;4.840;2023-02-15T11:17:58;10.70;56.80
77039;DHT22;65970;50.476;4.840;2023-02-15T11:23:01;10.90;54.30
77039;DHT22;65970;50.476;4.840;2023-02-15T11:28:06;11.10;52.90
77039;DHT22;65970;50.476;4.840;2023-02-15T11:33:19;11.30;51.30
77039;DHT22;65970;50.476;4.840;2023-02-15T11:38:27;11.40;51.90
77039;DHT22;65970;50.476;4.840;2023-02-15T12:05:15;12.20;52.10
77039;DHT22;65970;50.476;4.840;2023-02-15T12:15:30;12.60;55.10
77039;DHT22;65970;50.476;4.840;2023-02-15T12:20:32;12.80;49.60
77039;DHT22;65970;50.476;4.840;2023-02-15T12:25:39;13.10;50.80
77039;DHT22;65970;50.476;4.840;2023-02-15T12:30:42;13.20;46.30
77039;DHT22;65970;50.476;4.840;2023-02-15T12:35:44;13.40;44.50
77039;DHT22;65970;50.476;4.840;2023-02-15T12:41:05;13.50;45.10
77039;DHT22;65970;50.476;4.840;2023-02-15T12:46:24;13.50;44.90
77039;DHT22;65970;50.476;4.840;2023-02-15T12:51:25;13.60;44.40
77039;DHT22;65970;50.476;4.840;2023-02-15T12:56:27;13.70;45.60
77039;DHT22;65970;50.476;4.840;2023-02-15T13:27:41;13.90;43.00
77039;DHT22;65970;50.476;4.840;2023-02-15T13:48:59;13.80;44.60
77039;DHT22;65970;50.476;4.840;2023-02-15T14:32:45;13.70;42.70
77039;DHT22;65970;50.476;4.840;2023-02-15T14:48:49;13.60;44.70
77039;DHT22;65970;50.476;4.840;2023-02-15T14:53:51;13.50;44.60
77039;DHT22;65970;50.476;4.840;2023-02-15T15:03:55;13.40;44.60
77039;DHT22;65970;50.476;4.840;2023-02-15T15:09:21;13.30;44.90
77039;DHT22;65970;50.476;4.840;2023-02-15T15:14:43;13.20;45.40
77039;DHT22;65970;50.476;4.840;2023-02-15T15:29:45;13.00;44.60
77039;DHT22;65970;50.476;4.840;2023-02-15T15:34:57;13.00;44.60
77039;DHT22;65970;50.476;4.840;2023-02-15T15:50:23;12.80;47.90
77039;DHT22;65970;50.476;4.840;2023-02-15T15:55:26;12.70;47.90
77039;DHT22;65970;50.476;4.840;2023-02-15T16:00:41;12.70;47.70
77039;DHT22;65970;50.476;4.840;2023-02-15T16:05:43;12.60;49.00
77039;DHT22;65970;50.476;4.840;2023-02-15T16:10:44;12.50;48.60
77039;DHT22;65970;50.476;4.840;2023-02-15T16:15:46;12.40;50.50
77039;DHT22;65970;50.476;4.840;2023-02-15T16:20:50;12.40;49.70
77039;DHT22;65970;50.476;4.840;2023-02-15T16:31:12;12.30;50.70
77039;DHT22;65970;50.476;4.840;2023-02-15T16:36:27;12.20;50.40
77039;DHT22;65970;50.476;4.840;2023-02-15T16:41:29;12.10;48.00
77039;DHT22;65970;50.476;4.840;2023-02-15T16:46:32;12.00;50.20
77039;DHT22;65970;50.476;4.840;2023-02-15T16:51:34;12.00;52.00
77039;DHT22;65970;50.476;4.840;2023-02-15T16:56:35;11.90;52.00
77039;DHT22;65970;50.476;4.840;2023-02-15T17:01:36;11.80;52.70
77039;DHT22;65970;50.476;4.840;2023-02-15T17:06:36;11.70;52.90
77039;DHT22;65970;50.476;4.840;2023-02-15T17:11:42;11.70;53.40
77039;DHT22;65970;50.476;4.840;2023-02-15T17:16:53;11.60;53.30
77039;DHT22;65970;50.476;4.840;2023-02-15T17:21:57;11.50;52.90
77039;DHT22;65970;50.476;4.840;2023-02-15T17:27:02;11.40;54.90
77039;DHT22;65970;50.476;4.840;2023-02-15T17:32:12;11.40;53.70
77039;DHT22;65970;50.476;4.840;2023-02-15T17:42:24;11.20;53.00
77039;DHT22;65970;50.476;4.840;2023-02-15T17:47:25;11.10;55.20
77039;DHT22;65970;50.476;4.840;2023-02-15T17:52:39;11.00;54.10
77039;DHT22;65970;50.476;4.840;2023-02-15T18:02:53;10.80;53.70
77039;DHT22;65970;50.476;4.840;2023-02-15T18:54:27;10.20;57.60
77039;DHT22;65970;50.476;4.840;2023-02-15T18:59:28;10.10;57.10
77039;DHT22;65970;50.476;4.840;2023-02-15T19:04:56;10.10;56.60
77039;DHT22;65970;50.476;4.840;2023-02-15T19:10:20;10.10;56.20
77039;DHT22;65970;50.476;4.840;2023-02-15T20:28:16;9.50;61.40
77039;DHT22;65970;50.476;4.840;2023-02-15T20:54:14;9.30;63.50
77039;DHT22;65970;50.476;4.840;2023-02-15T21:04:45;9.10;54.10
77039;DHT22;65970;50.476;4.840;2023-02-15T21:09:47;9.10;56.50
77039;DHT22;65970;50.476;4.840;2023-02-15T21:14:47;9.00;54.50
77039;DHT22;65970;50.476;4.840;2023-02-15T21:19:49;9.00;53.80
77039;DHT22;65970;50.476;4.840;2023-02-15T21:24:51;9.00;53.90
77039;DHT22;65970;50.476;4.840;2023-02-15T21:35:02;8.80;51.80
77039;DHT22;65970;50.476;4.840;2023-02-15T21:40:03;8.80;57.90
77039;DHT22;65970;50.476;4.840;2023-02-15T21:45:18;8.80;54.80
77039;DHT22;65970;50.476;4.840;2023-02-15T21:50:21;8.70;51.50
77039;DHT22;65970;50.476;4.840;2023-02-15T21:55:22;8.60;51.40
77039;DHT22;65970;50.476;4.840;2023-02-15T22:00:23;8.60;60.00
77039;DHT22;65970;50.476;4.840;2023-02-15T22:05:31;8.50;52.10
77039;DHT22;65970;50.476;4.840;2023-02-15T22:10:32;8.40;56.00
77039;DHT22;65970;50.476;4.840;2023-02-15T22:15:36;8.40;57.10
77039;DHT22;65970;50.476;4.840;2023-02-15T22:20:36;8.30;54.90
77039;DHT22;65970;50.476;4.840;2023-02-15T22:25:37;8.20;57.10
77039;DHT22;65970;50.476;4.840;2023-02-15T22:30:37;8.20;62.50
77039;DHT22;65970;50.476;4.840;2023-02-15T22:35:38;8.10;59.80
77039;DHT22;65970;50.476;4.840;2023-02-15T22:40:39;8.10;59.60
77039;DHT22;65970;50.476;4.840;2023-02-15T22:45:39;8.10;58.60
77039;DHT22;65970;50.476;4.840;2023-02-15T22:50:40;8.00;56.80
77039;DHT22;65970;50.476;4.840;2023-02-15T22:55:40;8.00;61.10
77039;DHT22;65970;50.476;4.840;2023-02-15T23:00:41;8.00;62.30
77039;DHT22;65970;50.476;4.840;2023-02-15T23:05:43;8.00;61.40
77039;DHT22;65970;50.476;4.840;2023-02-15T23:10:48;7.80;58.90
77039;DHT22;65970;50.476;4.840;2023-02-15T23:15:59;7.70;58.10
77039;DHT22;65970;50.476;4.840;2023-02-15T23:26:16;7.60;61.30
77039;DHT22;65970;50.476;4.840;2023-02-15T23:31:20;7.60;60.80
77039;DHT22;65970;50.476;4.840;2023-02-15T23:36:25;7.60;59.30
77039;DHT22;65970;50.476;4.840;2023-02-15T23:41:28;7.60;56.90
77039;DHT22;65970;50.476;4.840;2023-02-15T23:46:40;7.60;57.70
77039;DHT22;65970;50.476;4.840;2023-02-15T23:51:43;7.60;58.80
77039;DHT22;65970;50.476;4.840;2023-02-15T23:56:46;7.50;57.50
